createdAt,value
2022-09-23T00:01:13.596Z,98047.60
2022-09-23T00:03:42.499Z,98046.75
2022-09-23T00:06:12.343Z,98045.41
2022-09-23T00:08:40.608Z,98042.71
2022-09-23T00:11:12.647Z,98039.07
2022-09-23T00:13:41.366Z,98036.58
2022-09-23T00:16:11.938Z,98035.18
2022-09-23T00:18:38.824Z,98033.58
2022-09-23T00:21:09.860Z,98031.66
2022-09-23T00:23:38.046Z,98030.81
2022-09-23T00:26:07.045Z,98032.77
2022-09-23T00:28:34.498Z,98036.13
2022-09-23T00:31:03.202Z,98033.89
2022-09-23T00:33:30.032Z,98034.75
2022-09-23T00:36:01.433Z,98029.27
2022-09-23T00:38:29.120Z,98029.11
2022-09-23T00:40:55.905Z,98030.22
2022-09-23T00:43:44.258Z,98027.77
2022-09-23T00:46:19.871Z,98028.57
2022-09-23T00:48:50.292Z,98029.84
2022-09-23T00:51:22.624Z,98031.70
2022-09-23T00:53:50.954Z,98035.39
2022-09-23T00:56:19.924Z,98032.92
2022-09-23T00:58:48.977Z,98036.39
2022-09-23T01:01:15.627Z,98042.51
2022-09-23T01:03:44.555Z,98040.64
2022-09-23T01:06:12.450Z,98039.20
2022-09-23T01:08:41.987Z,98040.41
2022-09-23T01:11:18.262Z,98041.27
2022-09-23T01:14:22.333Z,98041.47
2022-09-23T01:16:57.762Z,98045.31
2022-09-23T01:19:36.450Z,98047.36
2022-09-23T01:22:06.093Z,98048.55
2022-09-23T01:24:54.516Z,98049.15
2022-09-23T01:27:30.458Z,98049.98
2022-09-23T01:30:31.299Z,98048.79
2022-09-23T01:33:12.649Z,98053.05
2022-09-23T01:35:49.870Z,98053.20
2022-09-23T01:38:28.515Z,98056.59
2022-09-23T01:41:09.406Z,98055.77
2022-09-23T01:43:49.262Z,98056.80
2022-09-23T01:46:37.924Z,98055.05
2022-09-23T01:49:17.803Z,98053.95
2022-09-23T01:52:06.369Z,98056.64
2022-09-23T01:54:49.855Z,98058.40
2022-09-23T01:57:28.905Z,98052.70
2022-09-23T02:00:00.778Z,98056.05
2022-09-23T02:02:49.197Z,98053.59
2022-09-23T02:05:32.375Z,98057.61
2022-09-23T02:08:04.472Z,98055.98
2022-09-23T02:10:44.141Z,98055.33
2022-09-23T02:13:29.509Z,98054.02
2022-09-23T02:16:01.598Z,98054.39
2022-09-23T02:18:33.638Z,98052.27
2022-09-23T02:21:06.241Z,98053.09
2022-09-23T02:23:40.462Z,98058.49
2022-09-23T02:26:26.264Z,98057.45
2022-09-23T02:29:04.580Z,98057.30
2022-09-23T02:31:46.051Z,98057.16
2022-09-23T02:34:44.916Z,98059.48
2022-09-23T02:37:21.388Z,98061.27
2022-09-23T02:40:05.680Z,98059.97
2022-09-23T02:43:00.274Z,98060.27
2022-09-23T02:45:27.078Z,98061.21
2022-09-23T02:48:03.631Z,98061.19
2022-09-23T02:50:32.464Z,98062.67
2022-09-23T02:53:00.531Z,98066.60
2022-09-23T02:55:32.393Z,98070.07
2022-09-23T02:58:01.234Z,98069.95
2022-09-23T03:01:07.519Z,98069.39
2022-09-23T03:03:40.536Z,98071.30
2022-09-23T03:06:31.911Z,98077.51
2022-09-23T03:09:08.447Z,98073.13
2022-09-23T03:11:38.611Z,98074.54
2022-09-23T03:14:21.471Z,98070.47
2022-09-23T03:17:19.759Z,98071.71
2022-09-23T03:20:02.737Z,98073.02
2022-09-23T03:22:40.423Z,98076.16
2022-09-23T03:25:12.979Z,98076.77
2022-09-23T03:27:41.803Z,98076.72
2022-09-23T03:30:10.294Z,98074.83
2022-09-23T03:32:38.839Z,98074.31
2022-09-23T03:35:06.011Z,98073.09
2022-09-23T03:37:46.891Z,98075.55
2022-09-23T03:40:20.064Z,98072.59
2022-09-23T03:42:49.547Z,98071.52
2022-09-23T03:45:23.207Z,98069.94
2022-09-23T03:47:49.751Z,98067.77
2022-09-23T03:50:16.711Z,98060.34
2022-09-23T03:52:43.808Z,98060.98
2022-09-23T03:55:10.832Z,98059.92
2022-09-23T03:57:37.599Z,98060.94
2022-09-23T04:00:06.244Z,98062.47
2022-09-23T04:02:38.772Z,98060.64
2022-09-23T04:05:06.659Z,98059.11
2022-09-23T04:07:33.815Z,98055.85
2022-09-23T04:10:00.440Z,98057.54
2022-09-23T04:12:27.299Z,98055.04
2022-09-23T04:14:54.028Z,98055.77
2022-09-23T04:17:20.570Z,98054.63
2022-09-23T04:19:47.188Z,98056.44
2022-09-23T04:22:13.804Z,98057.11
2022-09-23T04:24:40.688Z,98057.31
2022-09-23T04:27:07.266Z,98061.13
2022-09-23T04:29:36.394Z,98062.95
2022-09-23T04:32:05.656Z,98064.84
2022-09-23T04:34:32.316Z,98065.02
2022-09-23T04:36:59.015Z,98063.38
2022-09-23T04:39:26.012Z,98065.77
2022-09-23T04:41:52.642Z,98063.55
2022-09-23T04:44:20.727Z,98066.11
2022-09-23T04:46:48.780Z,98067.20
2022-09-23T04:49:16.019Z,98069.15
2022-09-23T04:51:43.077Z,98070.88
2022-09-23T04:54:11.726Z,98069.12
2022-09-23T04:56:39.103Z,98071.11
2022-09-23T04:59:06.666Z,98070.28
2022-09-23T05:01:35.707Z,98068.55
2022-09-23T05:04:05.025Z,98067.22
2022-09-23T05:06:35.536Z,98062.46
2022-09-23T05:09:07.007Z,98063.06
2022-09-23T05:11:34.274Z,98064.10
2022-09-23T05:14:01.272Z,98064.52
2022-09-23T05:16:28.931Z,98065.08
2022-09-23T05:18:57.015Z,98065.43
2022-09-23T05:21:26.412Z,98060.75
2022-09-23T05:23:54.673Z,98059.86
2022-09-23T05:26:23.621Z,98058.96
2022-09-23T05:28:53.428Z,98062.45
2022-09-23T05:31:22.685Z,98067.13
2022-09-23T05:33:52.226Z,98071.42
2022-09-23T05:36:20.751Z,98074.20
2022-09-23T05:38:49.395Z,98078.48
2022-09-23T05:41:17.351Z,98078.96
2022-09-23T05:43:44.178Z,98079.60
2022-09-23T05:46:22.810Z,98081.38
2022-09-23T05:48:50.020Z,98082.09
2022-09-23T05:51:19.551Z,98079.61
2022-09-23T05:53:47.190Z,98082.25
2022-09-23T05:56:16.428Z,98088.00
2022-09-23T05:58:43.919Z,98090.54
2022-09-23T06:01:24.257Z,98092.77
2022-09-23T06:03:52.280Z,98095.30
2022-09-23T06:06:25.462Z,98095.00
2022-09-23T06:08:52.084Z,98091.95
2022-09-23T06:11:20.894Z,98097.84
2022-09-23T06:13:47.995Z,98097.54
2022-09-23T06:16:15.793Z,98099.16
2022-09-23T06:18:44.386Z,98096.98
2022-09-23T06:21:18.303Z,98099.16
2022-09-23T06:23:45.966Z,98099.13
2022-09-23T06:26:14.974Z,98095.40
2022-09-23T06:28:43.386Z,98097.89
2022-09-23T06:31:14.957Z,98098.36
2022-09-23T06:33:44.545Z,98097.11
2022-09-23T06:36:15.046Z,98097.84
2022-09-23T06:38:44.282Z,98098.34
2022-09-23T06:41:12.072Z,98101.91
2022-09-23T06:43:38.892Z,98098.65
2022-09-23T06:46:07.237Z,98102.21
2022-09-23T06:48:35.148Z,98100.89
2022-09-23T06:51:04.733Z,98103.80
2022-09-23T06:53:31.768Z,98105.20
2022-09-23T06:56:06.860Z,98098.30
2022-09-23T06:58:39.824Z,98101.10
2022-09-23T07:01:12.624Z,98105.02
2022-09-23T07:03:39.250Z,98105.84
2022-09-23T07:06:06.817Z,98105.33
2022-09-23T07:08:35.049Z,98108.48
2022-09-23T07:11:05.190Z,98105.94
2022-09-23T07:13:33.062Z,98109.08
2022-09-23T07:16:03.284Z,98106.15
2022-09-23T07:18:37.177Z,98108.78
2022-09-23T07:21:14.491Z,98109.19
2022-09-23T07:23:46.173Z,98108.42
2022-09-23T07:26:14.524Z,98108.50
2022-09-23T07:28:41.403Z,98109.01
2022-09-23T07:31:11.662Z,98110.79
2022-09-23T07:33:43.528Z,98112.04
2022-09-23T07:36:17.039Z,98113.28
2022-09-23T07:38:45.706Z,98111.77
2022-09-23T07:41:18.633Z,98112.23
2022-09-23T07:43:48.785Z,98114.99
2022-09-23T07:46:17.563Z,98116.96
2022-09-23T07:48:45.568Z,98115.49
2022-09-23T07:51:18.177Z,98110.38
2022-09-23T07:53:48.700Z,98106.13
2022-09-23T07:56:16.844Z,98108.09
2022-09-23T07:58:43.829Z,98106.16
2022-09-23T08:01:13.196Z,98106.63
2022-09-23T08:03:49.721Z,98109.04
2022-09-23T08:06:17.323Z,98109.14
2022-09-23T08:08:44.745Z,98107.85
2022-09-23T08:11:13.717Z,98110.21
2022-09-23T08:13:41.272Z,98108.90
2022-09-23T08:16:10.025Z,98105.80
2022-09-23T08:18:37.690Z,98107.77
2022-09-23T08:21:04.895Z,98106.20
2022-09-23T08:23:33.591Z,98102.52
2022-09-23T08:26:03.868Z,98100.35
2022-09-23T08:28:33.282Z,98098.02
2022-09-23T08:31:00.235Z,98097.73
2022-09-23T08:33:27.371Z,98096.05
2022-09-23T08:36:01.845Z,98094.17
2022-09-23T08:38:29.648Z,98089.46
2022-09-23T08:41:27.420Z,98085.38
2022-09-23T08:44:19.865Z,98078.07
2022-09-23T08:46:52.483Z,98072.36
2022-09-23T08:49:29.818Z,98072.59
2022-09-23T08:52:02.467Z,98075.24
2022-09-23T08:54:31.111Z,98073.36
2022-09-23T08:57:02.245Z,98072.52
2022-09-23T08:59:42.561Z,98072.03
2022-09-23T09:02:20.031Z,98071.69
2022-09-23T09:04:58.544Z,98071.07
2022-09-23T09:07:38.033Z,98069.02
2022-09-23T09:10:24.492Z,98069.80
2022-09-23T09:13:06.937Z,98071.90
2022-09-23T09:16:15.546Z,98067.77
2022-09-23T09:18:54.508Z,98064.73
2022-09-23T09:21:38.085Z,98061.35
2022-09-23T09:24:18.552Z,98067.08
2022-09-23T09:26:45.602Z,98070.08
2022-09-23T09:29:35.092Z,98067.06
2022-09-23T09:32:23.827Z,98060.64
2022-09-23T09:35:00.297Z,98060.55
2022-09-23T09:39:35.353Z,98051.44
2022-09-23T09:42:07.969Z,98056.23
2022-09-23T09:44:48.504Z,98055.69
2022-09-23T09:47:42.745Z,98055.02
2022-09-23T09:50:28.171Z,98054.27
2022-09-23T09:53:38.509Z,98059.73
2022-09-23T09:56:13.593Z,98059.91
2022-09-23T09:58:52.304Z,98056.62
2022-09-23T10:01:31.401Z,98056.46
2022-09-23T10:04:08.145Z,98056.11
2022-09-23T10:07:05.552Z,98048.87
2022-09-23T10:09:38.675Z,98045.61
2022-09-23T10:12:20.695Z,98052.82
2022-09-23T10:14:57.501Z,98055.49
2022-09-23T10:17:36.630Z,98056.52
2022-09-23T10:20:16.543Z,98057.60
2022-09-23T10:22:50.456Z,98057.77
2022-09-23T10:25:28.403Z,98055.59
2022-09-23T10:27:57.520Z,98050.33
2022-09-23T10:30:28.301Z,98052.28
2022-09-23T10:33:03.952Z,98053.25
2022-09-23T10:35:34.079Z,98054.13
2022-09-23T10:38:02.795Z,98048.43
2022-09-23T10:40:57.327Z,98050.31
2022-09-23T10:44:02.081Z,98048.05
2022-09-23T10:46:39.323Z,98041.56
2022-09-23T10:49:30.756Z,98034.47
2022-09-23T10:52:17.920Z,98039.91
2022-09-23T10:55:21.382Z,98032.39
2022-09-23T10:58:32.165Z,98025.66
2022-09-23T11:01:31.409Z,98021.23
2022-09-23T11:04:23.665Z,98025.95
2022-09-23T11:07:14.377Z,98028.64
2022-09-23T11:10:23.180Z,98027.36
2022-09-23T11:13:08.092Z,98020.86
2022-09-23T11:15:51.675Z,98022.25
2022-09-23T11:18:26.987Z,98023.30
2022-09-23T11:21:29.991Z,98023.41
2022-09-23T11:24:04.098Z,98020.76
2022-09-23T11:26:59.917Z,98016.80
2022-09-23T11:29:47.781Z,98014.86
2022-09-23T11:32:33.614Z,98017.59
2022-09-23T11:35:24.490Z,98010.35
2022-09-23T11:38:11.237Z,98011.47
2022-09-23T11:40:46.677Z,98012.50
2022-09-23T11:43:24.233Z,98016.70
2022-09-23T11:46:20.350Z,98010.98
2022-09-23T11:48:57.312Z,98008.61
2022-09-23T11:51:45.056Z,98003.34
2022-09-23T11:54:26.429Z,98000.09
2022-09-23T11:57:00.697Z,97995.42
2022-09-23T11:59:54.265Z,97997.40
2022-09-23T12:03:06.216Z,98001.69
2022-09-23T12:05:43.617Z,97999.97
2022-09-23T12:08:25.849Z,98000.23
2022-09-23T12:11:00.198Z,98002.60
2022-09-23T12:13:31.539Z,98001.02
2022-09-23T12:16:28.790Z,98002.05
2022-09-23T12:19:11.536Z,97997.63
2022-09-23T12:21:50.265Z,97993.80
2022-09-23T12:24:32.251Z,97995.17
2022-09-23T12:27:06.204Z,97997.08
2022-09-23T12:29:37.108Z,97997.77
2022-09-23T12:32:10.364Z,97994.72
2022-09-23T12:34:48.283Z,97991.45
2022-09-23T12:37:26.817Z,97991.18
2022-09-23T12:40:01.959Z,97989.08
2022-09-23T12:42:31.248Z,97989.29
2022-09-23T12:45:35.120Z,97988.02
2022-09-23T12:48:16.575Z,97990.61
2022-09-23T12:50:55.999Z,97991.09
2022-09-23T12:53:33.288Z,97989.07
2022-09-23T12:56:14.874Z,97987.95
2022-09-23T12:58:43.167Z,97987.50
2022-09-23T13:01:14.364Z,97984.85
2022-09-23T13:04:14.330Z,97982.20
2022-09-23T13:07:04.643Z,97977.02
2022-09-23T13:09:40.861Z,97969.95
2022-09-23T13:12:25.372Z,97965.23
2022-09-23T13:14:56.029Z,97965.75
2022-09-23T13:17:38.691Z,97965.83
2022-09-23T13:20:26.534Z,97968.25
2022-09-23T13:22:54.574Z,97968.02
2022-09-23T13:25:26.725Z,97969.38
2022-09-23T13:27:57.800Z,97971.40
2022-09-23T13:30:27.007Z,97972.05
2022-09-23T13:33:23.440Z,97972.04
2022-09-23T13:35:56.169Z,97966.83
2022-09-23T13:38:26.969Z,97964.92
2022-09-23T13:40:58.970Z,97965.92
2022-09-23T13:43:37.624Z,97963.23
2022-09-23T13:46:16.538Z,97961.79
2022-09-23T13:48:46.954Z,97958.11
2022-09-23T13:51:35.114Z,97960.05
2022-09-23T13:54:05.349Z,97961.14
2022-09-23T13:56:35.433Z,97962.26
2022-09-23T13:59:31.951Z,97961.52
2022-09-23T14:02:28.642Z,97962.97
2022-09-23T14:04:59.291Z,97962.71
2022-09-23T14:07:36.396Z,97964.01
2022-09-23T14:10:08.242Z,97962.38
2022-09-23T14:12:40.051Z,97962.08
2022-09-23T14:15:22.838Z,97966.77
2022-09-23T14:17:57.392Z,97965.69
2022-09-23T14:20:30.958Z,97968.95
2022-09-23T14:23:25.748Z,97970.68
2022-09-23T14:25:58.952Z,97970.27
2022-09-23T14:28:28.526Z,97967.33
2022-09-23T14:30:58.566Z,97966.22
2022-09-23T14:33:41.406Z,97970.76
2022-09-23T14:36:36.639Z,97971.37
2022-09-23T14:39:06.689Z,97970.79
2022-09-23T14:41:44.126Z,97965.32
2022-09-23T14:44:22.874Z,97966.68
2022-09-23T14:46:58.371Z,97965.67
2022-09-23T14:49:27.659Z,97968.18
2022-09-23T14:52:00.916Z,97970.38
2022-09-23T14:54:40.490Z,97974.77
2022-09-23T14:57:26.208Z,97970.98
2022-09-23T15:00:09.214Z,97974.77
2022-09-23T15:02:44.341Z,97972.88
2022-09-23T15:05:19.352Z,97977.48
2022-09-23T15:07:50.786Z,97988.05
2022-09-23T15:10:23.889Z,97990.25
2022-09-23T15:12:54.208Z,97992.70
2022-09-23T15:15:30.404Z,97999.85
2022-09-23T15:18:19.677Z,98001.27
2022-09-23T15:20:59.240Z,97993.80
2022-09-23T15:23:47.836Z,97996.30
2022-09-23T15:26:39.033Z,98001.05
2022-09-23T15:29:09.972Z,98003.16
2022-09-23T15:31:38.111Z,98009.23
2022-09-23T15:34:06.247Z,98008.14
2022-09-23T15:36:35.128Z,98011.48
2022-09-23T15:39:06.359Z,98009.14
2022-09-23T15:41:34.960Z,98006.96
2022-09-23T15:44:14.173Z,98005.07
2022-09-23T15:46:48.395Z,98004.91
2022-09-23T15:49:46.718Z,98005.30
2022-09-23T15:52:15.992Z,98003.99
2022-09-23T15:54:53.636Z,98005.83
2022-09-23T15:57:22.256Z,98009.35
2022-09-23T15:59:50.347Z,98004.83
2022-09-23T16:02:23.840Z,98006.27
2022-09-23T16:04:52.902Z,98007.02
2022-09-23T16:07:22.021Z,98006.10
2022-09-23T16:09:50.121Z,98005.31
2022-09-23T16:12:18.201Z,98002.62
2022-09-23T16:14:46.501Z,97999.69
2022-09-23T16:17:14.767Z,97998.77
2022-09-23T16:19:44.142Z,97999.81
2022-09-23T16:22:21.836Z,97997.36
2022-09-23T16:24:50.138Z,97999.11
2022-09-23T16:27:19.373Z,97996.18
2022-09-23T16:29:47.508Z,98000.00
2022-09-23T16:32:21.448Z,97998.09
2022-09-23T16:37:49.152Z,98001.83
2022-09-23T16:40:21.016Z,98002.02
2022-09-23T16:42:52.253Z,98006.30
2022-09-23T16:45:23.266Z,98003.90
2022-09-23T16:47:52.698Z,98006.78
2022-09-23T16:50:32.516Z,98010.13
2022-09-23T16:53:00.506Z,98018.11
2022-09-23T16:55:28.757Z,98021.40
2022-09-23T16:57:56.784Z,98026.61
2022-09-23T17:00:43.527Z,98028.27
2022-09-23T17:03:31.503Z,98026.42
2022-09-23T17:06:01.551Z,98028.40
2022-09-23T17:08:32.670Z,98027.54
2022-09-23T17:11:01.295Z,98025.92
2022-09-23T17:13:30.873Z,98026.73
2022-09-23T17:15:59.231Z,98027.34
2022-09-23T17:18:27.794Z,98027.70
2022-09-23T17:21:03.257Z,98029.22
2022-09-23T17:23:32.558Z,98037.78
2022-09-23T17:26:01.997Z,98042.11
2022-09-23T17:28:30.050Z,98035.88
2022-09-23T17:31:00.323Z,98032.31
2022-09-23T17:33:30.999Z,98038.64
2022-09-23T17:36:02.301Z,98043.27
2022-09-23T17:38:30.894Z,98038.65
2022-09-23T17:41:02.239Z,98035.25
2022-09-23T17:43:31.771Z,98033.92
2022-09-23T17:46:12.984Z,98037.48
2022-09-23T17:48:42.022Z,98042.44
2022-09-23T17:51:11.801Z,98043.02
2022-09-23T17:53:41.440Z,98045.36
2022-09-23T17:56:22.920Z,98046.56
2022-09-23T17:58:52.188Z,98044.67
2022-09-23T18:01:22.935Z,98048.52
2022-09-23T18:03:56.102Z,98051.25
2022-09-23T18:06:26.676Z,98048.53
2022-09-23T18:08:57.253Z,98044.58
2022-09-23T18:11:28.483Z,98043.53
2022-09-23T18:14:12.589Z,98041.04
2022-09-23T18:16:42.949Z,98042.84
2022-09-23T18:19:14.129Z,98039.73
2022-09-23T18:21:45.472Z,98040.83
2022-09-23T18:27:04.008Z,98048.45
2022-09-23T18:29:34.072Z,98047.17
2022-09-23T18:32:02.922Z,98044.44
2022-09-23T18:34:31.583Z,98046.98
2022-09-23T18:36:59.823Z,98047.47
2022-09-23T18:39:28.742Z,98043.16
2022-09-23T18:41:56.824Z,98040.73
2022-09-23T18:44:25.003Z,98039.98
2022-09-23T18:46:53.145Z,98044.59
2022-09-23T18:49:39.944Z,98047.67
2022-09-23T18:52:08.050Z,98047.33
2022-09-23T18:54:36.710Z,98055.55
2022-09-23T18:57:05.373Z,98057.20
2022-09-23T18:59:33.634Z,98059.69
2022-09-23T19:02:02.075Z,98059.17
2022-09-23T19:04:30.328Z,98062.11
2022-09-23T19:06:59.043Z,98061.73
2022-09-23T19:09:27.833Z,98063.13
2022-09-23T19:11:56.598Z,98067.10
2022-09-23T19:14:24.669Z,98067.66
2022-09-23T19:16:52.811Z,98063.17
2022-09-23T19:19:20.862Z,98068.27
2022-09-23T19:21:48.923Z,98066.41
2022-09-23T19:24:20.689Z,98067.13
2022-09-23T19:26:48.857Z,98065.02
2022-09-23T19:29:22.099Z,98062.82
2022-09-23T19:31:51.240Z,98067.97
2022-09-23T19:34:29.277Z,98070.29
2022-09-23T19:36:58.930Z,98071.86
2022-09-23T19:39:31.234Z,98071.52
2022-09-23T19:41:59.475Z,98069.98
2022-09-23T19:44:28.763Z,98066.81
2022-09-23T19:46:57.506Z,98065.67
2022-09-23T19:49:26.386Z,98066.95
2022-09-23T19:51:56.156Z,98068.17
2022-09-23T19:54:27.693Z,98074.11
2022-09-23T19:56:56.113Z,98076.91
2022-09-23T19:59:26.485Z,98075.30
2022-09-23T20:01:55.195Z,98077.41
2022-09-23T20:04:23.378Z,98079.09
2022-09-23T20:06:51.324Z,98078.48
2022-09-23T20:09:19.468Z,98080.33
2022-09-23T20:11:47.424Z,98081.78
2022-09-23T20:14:15.418Z,98086.23
2022-09-23T20:16:43.563Z,98082.11
2022-09-23T20:19:11.826Z,98083.09
2022-09-23T20:21:39.974Z,98081.65
2022-09-23T20:24:09.742Z,98083.27
2022-09-23T20:26:56.733Z,98083.71
2022-09-23T20:29:24.663Z,98081.71
2022-09-23T20:31:52.938Z,98081.25
2022-09-23T20:34:21.647Z,98079.57
2022-09-23T20:36:50.025Z,98078.34
2022-09-23T20:39:17.987Z,98075.28
2022-09-23T20:41:46.140Z,98080.54
2022-09-23T20:44:14.408Z,98080.61
2022-09-23T20:46:48.640Z,98083.77
2022-09-23T20:49:18.142Z,98076.50
2022-09-23T20:51:50.306Z,98079.43
2022-09-23T20:54:19.440Z,98080.52
2022-09-23T20:56:47.948Z,98079.49
2022-09-23T20:59:18.226Z,98075.20
2022-09-23T21:01:47.815Z,98077.61
2022-09-23T21:04:16.308Z,98074.62
2022-09-23T21:06:44.455Z,98079.70
2022-09-23T21:09:12.502Z,98076.55
2022-09-23T21:11:40.857Z,98079.44
2022-09-23T21:14:09.268Z,98080.57
2022-09-23T21:16:37.337Z,98084.44
2022-09-23T21:19:08.115Z,98085.33
2022-09-23T21:21:36.371Z,98083.77
2022-09-23T21:24:31.285Z,98080.61
2022-09-23T21:26:52.429Z,98083.09
2022-09-23T21:29:20.449Z,98080.69
2022-09-23T21:31:49.675Z,98077.50
2022-09-23T21:34:19.513Z,98074.85
2022-09-23T21:36:48.447Z,98072.99
2022-09-23T21:39:16.901Z,98073.30
2022-09-23T21:41:45.318Z,98070.88
2022-09-23T21:44:13.501Z,98076.94
2022-09-23T21:46:41.866Z,98077.95
2022-09-23T21:49:09.819Z,98076.29
2022-09-23T21:51:42.880Z,98077.73
2022-09-23T21:54:17.044Z,98079.77
2022-09-23T21:56:45.225Z,98078.30
2022-09-23T21:59:13.307Z,98075.70
2022-09-23T22:01:44.923Z,98076.75
2022-09-23T22:04:17.432Z,98076.34
2022-09-23T22:06:49.267Z,98075.84
2022-09-23T22:09:20.542Z,98073.59
2022-09-23T22:12:07.282Z,98072.58
2022-09-23T22:14:35.986Z,98078.80
2022-09-23T22:17:06.394Z,98076.92
2022-09-23T22:19:40.322Z,98075.17
2022-09-23T22:22:13.513Z,98072.09
2022-09-23T22:24:46.679Z,98076.36
2022-09-23T22:27:17.590Z,98077.13
2022-09-23T22:30:04.110Z,98078.83
2022-09-23T22:32:35.035Z,98079.98
2022-09-23T22:35:03.747Z,98077.16
2022-09-23T22:37:34.738Z,98073.05
2022-09-23T22:40:05.796Z,98073.57
2022-09-23T22:42:34.117Z,98076.46
2022-09-23T22:45:05.823Z,98079.98
2022-09-23T22:47:37.248Z,98084.88
2022-09-23T22:50:07.272Z,98081.85
2022-09-23T22:52:35.974Z,98081.88
2022-09-23T22:55:04.968Z,98082.37
2022-09-23T22:57:32.850Z,98081.58
2022-09-23T23:00:00.929Z,98080.84
2022-09-23T23:02:28.987Z,98078.20
2022-09-23T23:04:58.660Z,98081.09
2022-09-23T23:07:26.701Z,98081.19
2022-09-23T23:09:54.759Z,98081.03
2022-09-23T23:12:22.614Z,98081.98
2022-09-23T23:14:50.507Z,98081.41
2022-09-23T23:17:18.937Z,98083.17
2022-09-23T23:19:47.605Z,98084.41
2022-09-23T23:22:15.492Z,98082.19
2022-09-23T23:24:43.561Z,98084.15
2022-09-23T23:27:11.518Z,98080.16
2022-09-23T23:29:39.535Z,98079.61
2022-09-23T23:32:07.805Z,98076.77
2022-09-23T23:34:35.912Z,98075.41
2022-09-23T23:37:03.911Z,98076.48
2022-09-23T23:39:31.899Z,98079.14
2022-09-23T23:42:00.665Z,98072.15
2022-09-23T23:44:30.633Z,98066.42
2022-09-23T23:46:58.614Z,98065.44
2022-09-23T23:49:26.483Z,98063.45
2022-09-23T23:51:54.402Z,98062.89
2022-09-23T23:54:22.373Z,98065.06
2022-09-23T23:56:50.600Z,98063.93
2022-09-23T23:59:20.157Z,98063.04
